Terminal Aerodrome Forecast
Issued by NWS

Home | Current Version | Previous Version | Text Only | Print | Product List | Glossary On
Versions: 1 2 3 4 5 6 7 8 9 10 11 12 13
000
FTUS46 KLOX 172300
TAFVNY
TAF
KVNY 172335Z 1800/1824 27006KT P6SM SKC
     FM180300 VRB03KT P6SM SKC
     FM181300 VRB05KT P6SM OVC010
     FM181800 16005KT P6SM OVC020
     FM182000 15009KT P6SM BKN025
     FM182200 17009KT P6SM SCT030=

USA.gov is the U.S. government's official web portal to all federal, state and local government web resources and services.